createdAt,value
2023-05-12T00:01:08.150Z,96786.63
2023-05-12T00:03:34.984Z,96788.47
2023-05-12T00:06:05.111Z,96790.47
2023-05-12T00:08:31.848Z,96789.19
2023-05-12T00:10:58.517Z,96785.50
2023-05-12T00:13:25.326Z,96786.22
2023-05-12T00:15:52.189Z,96788.22
2023-05-12T00:18:18.982Z,96791.56
2023-05-12T00:20:45.684Z,96791.56
2023-05-12T00:23:12.458Z,96792.69
2023-05-12T00:25:39.172Z,96790.53
2023-05-12T00:28:05.973Z,96794.84
2023-05-12T00:30:32.598Z,96793.00
2023-05-12T00:32:59.332Z,96791.25
2023-05-12T00:35:25.967Z,96795.56
2023-05-12T00:37:52.802Z,96790.53
2023-05-12T00:40:19.664Z,96791.56
2023-05-12T00:42:46.555Z,96788.69
2023-05-12T00:45:13.241Z,96794.84
2023-05-12T00:47:40.090Z,96794.84
2023-05-12T00:50:08.476Z,96785.00
2023-05-12T00:52:35.874Z,96788.44
2023-05-12T00:55:03.499Z,96781.69
2023-05-12T00:57:30.297Z,96783.38
2023-05-12T00:59:57.617Z,96781.38
2023-05-12T01:02:24.764Z,96783.53
2023-05-12T01:04:52.096Z,96782.72
2023-05-12T01:07:22.177Z,96780.00
2023-05-12T01:09:55.312Z,96772.81
2023-05-12T01:12:26.217Z,96773.69
2023-05-12T01:14:53.488Z,96773.44
2023-05-12T01:17:24.369Z,96772.44
2023-05-12T01:19:57.034Z,96765.88
2023-05-12T01:22:24.129Z,96776.16
2023-05-12T01:25:03.019Z,96765.84
2023-05-12T01:27:31.764Z,96773.91
2023-05-12T01:30:02.315Z,96770.03
2023-05-12T01:32:33.028Z,96768.75
2023-05-12T01:35:00.184Z,96775.63
2023-05-12T01:37:29.061Z,96781.06
2023-05-12T01:39:56.608Z,96777.22
2023-05-12T01:42:23.385Z,96782.34
2023-05-12T01:44:51.962Z,96770.50
2023-05-12T01:47:20.960Z,96772.34
2023-05-12T01:49:57.516Z,96770.75
2023-05-12T01:52:25.319Z,96765.47
2023-05-12T01:54:52.397Z,96768.34
2023-05-12T01:57:19.325Z,96781.25
2023-05-12T01:59:46.793Z,96769.91
2023-05-12T02:02:13.582Z,96779.63
2023-05-12T02:04:40.352Z,96777.81
2023-05-12T02:07:07.015Z,96772.50
2023-05-12T02:09:33.751Z,96768.66
2023-05-12T02:12:02.600Z,96773.25
2023-05-12T02:14:29.382Z,96762.22
2023-05-12T02:16:56.961Z,96777.28
2023-05-12T02:19:25.297Z,96765.66
2023-05-12T02:21:52.532Z,96766.25
2023-05-12T02:24:19.222Z,96767.22
2023-05-12T02:26:46.008Z,96766.47
2023-05-12T02:29:13.491Z,96768.22
2023-05-12T02:31:40.356Z,96764.75
2023-05-12T02:34:16.426Z,96766.47
2023-05-12T02:36:43.286Z,96767.22
2023-05-12T02:39:11.587Z,96761.78
2023-05-12T02:41:38.762Z,96762.50
2023-05-12T02:44:05.405Z,96758.38
2023-05-12T02:46:32.414Z,96759.97
2023-05-12T02:48:59.137Z,96753.63
2023-05-12T02:51:25.899Z,96762.22
2023-05-12T02:53:52.533Z,96756.34
2023-05-12T02:56:19.301Z,96759.25
2023-05-12T02:58:45.930Z,96756.09
2023-05-12T03:01:12.724Z,96749.78
2023-05-12T03:03:41.399Z,96755.09
2023-05-12T03:06:08.391Z,96761.09
2023-05-12T03:08:35.074Z,96755.81
2023-05-12T03:11:02.577Z,96745.78
2023-05-12T03:13:29.577Z,96752.09
2023-05-12T03:15:57.208Z,96743.78
2023-05-12T03:18:23.876Z,96746.34
2023-05-12T03:20:50.838Z,96745.94
2023-05-12T03:23:17.420Z,96753.69
2023-05-12T03:25:44.209Z,96749.38
2023-05-12T03:28:11.472Z,96749.94
2023-05-12T03:30:38.362Z,96755.81
2023-05-12T03:33:05.136Z,96757.41
2023-05-12T03:35:32.404Z,96758.13
2023-05-12T03:38:01.818Z,96755.00
2023-05-12T03:40:29.092Z,96751.13
2023-05-12T03:42:55.705Z,96752.81
2023-05-12T03:45:22.457Z,96745.63
2023-05-12T03:47:49.244Z,96749.66
2023-05-12T03:50:16.058Z,96749.75
2023-05-12T03:52:42.693Z,96747.47
2023-05-12T03:55:10.510Z,96751.47
2023-05-12T03:57:38.194Z,96748.63
2023-05-12T04:00:07.354Z,96750.19
2023-05-12T04:02:39.722Z,96750.38
2023-05-12T04:05:08.696Z,96750.38
2023-05-12T04:07:35.799Z,96741.03
2023-05-12T04:10:03.073Z,96740.31
2023-05-12T04:12:29.899Z,96736.88
2023-05-12T04:14:57.292Z,96745.31
2023-05-12T04:17:24.607Z,96742.03
2023-05-12T04:19:53.479Z,96749.94
2023-05-12T04:22:20.214Z,96741.75
2023-05-12T04:24:46.897Z,96746.34
2023-05-12T04:27:13.639Z,96747.78
2023-05-12T04:29:40.523Z,96748.34
2023-05-12T04:32:07.927Z,96751.03
2023-05-12T04:34:35.322Z,96758.31
2023-05-12T04:37:02.135Z,96752.47
2023-05-12T04:39:29.755Z,96751.75
2023-05-12T04:41:57.874Z,96755.59
2023-05-12T04:44:24.885Z,96755.34
2023-05-12T04:46:54.111Z,96753.91
2023-05-12T04:49:20.856Z,96762.22
2023-05-12T04:51:48.106Z,96765.09
2023-05-12T04:54:14.805Z,96767.72
2023-05-12T04:56:42.587Z,96767.72
2023-05-12T04:59:09.606Z,96773.06
2023-05-12T05:01:36.373Z,96768.06
2023-05-12T05:04:03.333Z,96775.09
2023-05-12T05:06:30.830Z,96780.81
2023-05-12T05:08:59.043Z,96784.44
2023-05-12T05:11:25.973Z,96775.84
2023-05-12T05:13:52.798Z,96779.56
2023-05-12T05:16:20.419Z,96785.19
2023-05-12T05:18:48.047Z,96785.19
2023-05-12T05:21:15.070Z,96778.03
2023-05-12T05:23:42.438Z,96783.91
2023-05-12T05:26:09.481Z,96777.34
2023-05-12T05:28:36.676Z,96785.81
2023-05-12T05:31:03.416Z,96786.81
2023-05-12T05:33:30.283Z,96781.09
2023-05-12T05:35:57.044Z,96782.66
2023-05-12T05:38:24.035Z,96781.81
2023-05-12T05:40:54.212Z,96790.28
2023-05-12T05:43:23.051Z,96788.97
2023-05-12T05:45:50.423Z,96789.41
2023-05-12T05:48:18.581Z,96796.44
2023-05-12T05:50:46.740Z,96787.81
2023-05-12T05:53:13.432Z,96794.56
2023-05-12T05:55:40.850Z,96792.72
2023-05-12T05:58:07.773Z,96789.69
2023-05-12T06:00:34.560Z,96800.88
2023-05-12T06:03:01.893Z,96802.59
2023-05-12T06:05:29.030Z,96802.59
2023-05-12T06:07:55.945Z,96805.59
2023-05-12T06:10:22.792Z,96802.00
2023-05-12T06:12:50.567Z,96806.88
2023-05-12T06:15:17.787Z,96803.88
2023-05-12T06:17:44.911Z,96809.63
2023-05-12T06:20:13.418Z,96814.94
2023-05-12T06:22:42.339Z,96813.50
2023-05-12T06:25:10.008Z,96819.38
2023-05-12T06:27:38.226Z,96814.22
2023-05-12T06:30:06.446Z,96814.81
2023-05-12T06:32:33.254Z,96816.69
2023-05-12T06:34:59.949Z,96813.38
2023-05-12T06:37:27.509Z,96809.50
2023-05-12T06:39:54.303Z,96816.66
2023-05-12T06:42:23.455Z,96816.41
2023-05-12T06:44:51.895Z,96809.66
2023-05-12T06:47:20.608Z,96814.69
2023-05-12T06:49:50.068Z,96812.34
2023-05-12T06:52:17.147Z,96814.47
2023-05-12T06:54:43.815Z,96811.53
2023-05-12T06:57:10.871Z,96820.22
2023-05-12T06:59:37.523Z,96821.13
2023-05-12T07:02:04.270Z,96822.31
2023-05-12T07:04:31.049Z,96823.69
2023-05-12T07:06:57.843Z,96821.38
2023-05-12T07:09:24.573Z,96819.72
2023-05-12T07:11:51.249Z,96831.97
2023-05-12T07:14:17.957Z,96827.69
2023-05-12T07:16:44.614Z,96834.50
2023-05-12T07:19:11.376Z,96831.44
2023-05-12T07:21:38.248Z,96837.38
2023-05-12T07:24:06.276Z,96837.50
2023-05-12T07:26:33.506Z,96835.72
2023-05-12T07:29:01.020Z,96838.34
2023-05-12T07:31:28.663Z,96835.38
2023-05-12T07:33:55.516Z,96837.28
2023-05-12T07:36:22.315Z,96833.41
2023-05-12T07:38:48.972Z,96830.75
2023-05-12T07:41:15.722Z,96835.75
2023-05-12T07:43:42.299Z,96831.31
2023-05-12T07:46:09.071Z,96824.69
2023-05-12T07:48:39.950Z,96830.22
2023-05-12T07:51:07.417Z,96830.97
2023-05-12T07:53:34.045Z,96828.44
2023-05-12T07:56:00.751Z,96817.91
2023-05-12T07:58:27.328Z,96822.56
2023-05-12T08:00:54.598Z,96827.28
2023-05-12T08:03:21.387Z,96819.00
2023-05-12T08:05:48.113Z,96826.09
2023-05-12T08:08:16.774Z,96823.88
2023-05-12T08:10:44.300Z,96819.00
2023-05-12T08:13:10.967Z,96811.38
2023-05-12T08:15:37.728Z,96822.19
2023-05-12T08:18:04.513Z,96813.94
2023-05-12T08:20:32.198Z,96819.47
2023-05-12T08:22:59.424Z,96822.06
2023-05-12T08:25:27.856Z,96825.66
2023-05-12T08:27:54.743Z,96820.75
2023-05-12T08:30:21.412Z,96819.56
2023-05-12T08:32:48.265Z,96817.81
2023-05-12T08:35:15.010Z,96821.50
2023-05-12T08:37:41.748Z,96825.03
2023-05-12T08:40:15.718Z,96825.22
2023-05-12T08:43:01.842Z,96821.00
2023-05-12T08:45:29.506Z,96821.53
2023-05-12T08:47:56.997Z,96826.63
2023-05-12T08:50:24.459Z,96829.03
2023-05-12T08:52:51.578Z,96822.00
2023-05-12T08:55:19.484Z,96829.22
2023-05-12T08:57:48.607Z,96827.47
2023-05-12T09:00:16.395Z,96822.41
2023-05-12T09:02:53.076Z,96827.09
2023-05-12T09:05:22.067Z,96825.41
2023-05-12T09:07:49.963Z,96822.63
2023-05-12T09:10:32.721Z,96826.44
2023-05-12T09:13:14.780Z,96819.31
2023-05-12T09:15:43.369Z,96830.72
2023-05-12T09:18:10.127Z,96823.31
2023-05-12T09:20:36.965Z,96825.66
2023-05-12T09:23:20.729Z,96827.91
2023-05-12T09:25:48.425Z,96825.06
2023-05-12T09:28:15.702Z,96821.91
2023-05-12T09:30:42.886Z,96822.88
2023-05-12T09:33:11.522Z,96827.19
2023-05-12T09:35:40.271Z,96827.63
2023-05-12T09:38:08.545Z,96831.59
2023-05-12T09:40:35.429Z,96831.09
2023-05-12T09:43:03.441Z,96826.00
2023-05-12T09:45:34.108Z,96831.97
2023-05-12T09:48:09.503Z,96830.56
2023-05-12T09:50:47.304Z,96825.66
2023-05-12T09:53:17.285Z,96827.53
2023-05-12T09:55:44.837Z,96828.41
2023-05-12T09:58:11.825Z,96824.53
2023-05-12T10:00:59.106Z,96821.78
2023-05-12T10:03:30.333Z,96820.84
2023-05-12T10:05:58.809Z,96827.59
2023-05-12T10:08:32.085Z,96820.25
2023-05-12T10:10:59.897Z,96833.06
2023-05-12T10:13:26.734Z,96826.47
2023-05-12T10:15:57.120Z,96823.50
2023-05-12T10:18:24.268Z,96826.75
2023-05-12T10:20:52.563Z,96826.13
2023-05-12T10:23:20.211Z,96828.69
2023-05-12T10:25:47.861Z,96827.63
2023-05-12T10:28:14.578Z,96827.00
2023-05-12T10:30:41.752Z,96818.66
2023-05-12T10:33:11.398Z,96827.72
2023-05-12T10:35:39.415Z,96826.50
2023-05-12T10:38:07.849Z,96825.22
2023-05-12T10:40:34.602Z,96818.72
2023-05-12T10:43:01.531Z,96815.28
2023-05-12T10:45:28.628Z,96818.84
2023-05-12T10:48:05.969Z,96819.09
2023-05-12T10:50:33.905Z,96818.41
2023-05-12T10:53:00.633Z,96819.63
2023-05-12T10:55:42.795Z,96818.91
2023-05-12T10:58:11.713Z,96818.44
2023-05-12T11:00:50.532Z,96817.53
2023-05-12T11:03:25.332Z,96812.84
2023-05-12T11:06:03.060Z,96814.53
2023-05-12T11:08:32.426Z,96816.00
2023-05-12T11:10:59.499Z,96825.13
2023-05-12T11:13:26.274Z,96827.50
2023-05-12T11:15:53.121Z,96823.13
2023-05-12T11:18:21.698Z,96819.22
2023-05-12T11:20:48.888Z,96818.41
2023-05-12T11:23:27.236Z,96823.97
2023-05-12T11:25:54.044Z,96818.66
2023-05-12T11:28:20.687Z,96819.19
2023-05-12T11:30:55.005Z,96823.38
2023-05-12T11:33:25.507Z,96820.72
2023-05-12T11:35:52.240Z,96816.81
2023-05-12T11:38:19.624Z,96821.88
2023-05-12T11:40:47.101Z,96817.84
2023-05-12T11:43:15.233Z,96825.06
2023-05-12T11:45:42.298Z,96819.09
2023-05-12T11:48:13.814Z,96814.31
2023-05-12T11:50:42.317Z,96814.75
2023-05-12T11:53:14.786Z,96815.88
2023-05-12T11:55:55.817Z,96808.59
2023-05-12T11:58:26.597Z,96814.34
2023-05-12T12:00:54.240Z,96812.03
2023-05-12T12:03:21.204Z,96820.88
2023-05-12T12:05:59.698Z,96821.00
2023-05-12T12:08:26.428Z,96822.81
2023-05-12T12:10:53.159Z,96822.41
2023-05-12T12:13:24.506Z,96822.31
2023-05-12T12:15:51.560Z,96822.63
2023-05-12T12:18:21.592Z,96816.56
2023-05-12T12:20:48.689Z,96823.19
2023-05-12T12:23:15.467Z,96826.94
2023-05-12T12:25:42.258Z,96829.22
2023-05-12T12:28:09.031Z,96817.50
2023-05-12T12:30:35.728Z,96830.22
2023-05-12T12:33:02.478Z,96822.31
2023-05-12T12:35:29.189Z,96823.56
2023-05-12T12:37:55.789Z,96828.94
2023-05-12T12:40:22.501Z,96826.16
2023-05-12T12:42:49.197Z,96833.38
2023-05-12T12:45:16.952Z,96838.97
2023-05-12T12:47:44.666Z,96833.56
2023-05-12T12:50:11.650Z,96832.09
2023-05-12T12:52:38.685Z,96831.63
2023-05-12T12:55:06.747Z,96835.03
2023-05-12T12:57:33.385Z,96819.75
2023-05-12T13:00:00.156Z,96828.94
2023-05-12T13:02:27.020Z,96825.72
2023-05-12T13:04:53.915Z,96828.88
2023-05-12T13:07:20.840Z,96825.69
2023-05-12T13:09:47.580Z,96824.78
2023-05-12T13:12:14.704Z,96830.41
2023-05-12T13:14:41.453Z,96817.88
2023-05-12T13:17:08.206Z,96821.38
2023-05-12T13:19:37.786Z,96821.94
2023-05-12T13:22:05.202Z,96827.53
2023-05-12T13:24:31.904Z,96814.16
2023-05-12T13:26:58.896Z,96813.50
2023-05-12T13:29:25.649Z,96808.84
2023-05-12T13:31:52.453Z,96811.50
2023-05-12T13:34:19.163Z,96813.59
2023-05-12T13:36:45.857Z,96803.22
2023-05-12T13:39:12.686Z,96810.78
2023-05-12T13:41:39.379Z,96806.59
2023-05-12T13:44:06.223Z,96808.00
2023-05-12T13:46:32.937Z,96813.34
2023-05-12T13:48:59.657Z,96815.00
2023-05-12T13:51:26.753Z,96809.38
2023-05-12T13:53:53.529Z,96808.72
2023-05-12T13:56:20.365Z,96810.41
2023-05-12T13:58:47.791Z,96806.69
2023-05-12T14:01:14.815Z,96802.38
2023-05-12T14:03:42.149Z,96812.56
2023-05-12T14:06:09.345Z,96810.91
2023-05-12T14:08:36.346Z,96807.59
2023-05-12T14:11:03.310Z,96815.34
2023-05-12T14:13:30.229Z,96811.00
2023-05-12T14:15:57.301Z,96808.91
2023-05-12T14:18:25.104Z,96804.34
2023-05-12T14:20:52.176Z,96801.91
2023-05-12T14:23:18.867Z,96809.13
2023-05-12T14:25:45.794Z,96805.59
2023-05-12T14:28:12.455Z,96807.69
2023-05-12T14:30:39.558Z,96803.56
2023-05-12T14:33:06.572Z,96806.13
2023-05-12T14:35:33.378Z,96802.09
2023-05-12T14:38:00.021Z,96800.28
2023-05-12T14:40:27.494Z,96807.50
2023-05-12T14:42:55.091Z,96808.88
2023-05-12T14:45:22.255Z,96800.06
2023-05-12T14:47:49.235Z,96808.25
2023-05-12T14:50:16.098Z,96805.41
2023-05-12T14:52:42.732Z,96797.66
2023-05-12T14:55:13.979Z,96801.22
2023-05-12T14:57:41.488Z,96802.84
2023-05-12T15:00:10.785Z,96789.00
2023-05-12T15:02:37.980Z,96799.03
2023-05-12T15:05:07.116Z,96792.22
2023-05-12T15:07:34.066Z,96798.97
2023-05-12T15:10:01.157Z,96794.81
2023-05-12T15:12:27.944Z,96791.63
2023-05-12T15:14:56.348Z,96796.69
2023-05-12T15:17:23.477Z,96799.53
2023-05-12T15:19:50.367Z,96793.56
2023-05-12T15:22:17.024Z,96784.25
2023-05-12T15:24:43.869Z,96790.00
2023-05-12T15:27:10.631Z,96782.81
2023-05-12T15:29:41.355Z,96790.25
2023-05-12T15:32:08.223Z,96804.16
2023-05-12T15:34:35.119Z,96803.63
2023-05-12T15:37:01.966Z,96806.91
2023-05-12T15:39:28.693Z,96803.06
2023-05-12T15:41:55.386Z,96808.63
2023-05-12T15:44:21.985Z,96807.00
2023-05-12T15:46:48.727Z,96800.78
2023-05-12T15:49:15.396Z,96799.03
2023-05-12T15:51:42.142Z,96803.00
2023-05-12T15:54:09.730Z,96805.56
2023-05-12T15:56:37.349Z,96800.06
2023-05-12T15:59:05.207Z,96802.50
2023-05-12T16:01:32.100Z,96808.50
2023-05-12T16:04:00.674Z,96803.00
2023-05-12T16:06:27.560Z,96803.91
2023-05-12T16:08:54.299Z,96797.78
2023-05-12T16:11:20.930Z,96798.34
2023-05-12T16:13:47.646Z,96791.03
2023-05-12T16:16:14.395Z,96799.56
2023-05-12T16:18:41.371Z,96800.19
2023-05-12T16:21:09.557Z,96793.50
2023-05-12T16:23:36.346Z,96800.03
2023-05-12T16:26:03.278Z,96795.53
2023-05-12T16:28:30.040Z,96793.78
2023-05-12T16:30:56.778Z,96791.00
2023-05-12T16:33:23.493Z,96797.38
2023-05-12T16:35:50.757Z,96800.25
2023-05-12T16:38:17.503Z,96794.13
2023-05-12T16:40:44.377Z,96796.94
2023-05-12T16:43:11.006Z,96790.81
2023-05-12T16:45:37.811Z,96790.19
2023-05-12T16:48:04.853Z,96788.44
2023-05-12T16:50:32.205Z,96790.44
2023-05-12T16:52:58.860Z,96787.88
2023-05-12T16:55:25.707Z,96784.44
2023-05-12T16:57:52.366Z,96787.69
2023-05-12T17:00:19.362Z,96784.78
2023-05-12T17:02:46.057Z,96788.13
2023-05-12T17:05:12.857Z,96789.28
2023-05-12T17:07:39.495Z,96791.34
2023-05-12T17:10:06.689Z,96797.22
2023-05-12T17:12:33.352Z,96796.72
2023-05-12T17:15:07.399Z,96802.53
2023-05-12T17:17:35.023Z,96805.91
2023-05-12T17:20:02.465Z,96801.59
2023-05-12T17:22:29.611Z,96798.66
2023-05-12T17:24:56.681Z,96797.72
2023-05-12T17:27:23.524Z,96802.94
2023-05-12T17:29:50.204Z,96803.78
2023-05-12T17:32:17.090Z,96804.25
2023-05-12T17:34:43.798Z,96806.16
2023-05-12T17:37:10.540Z,96805.94
2023-05-12T17:39:40.439Z,96810.25
2023-05-12T17:42:07.562Z,96819.50
2023-05-12T17:44:34.200Z,96822.63
2023-05-12T17:47:01.288Z,96819.44
2023-05-12T17:49:28.046Z,96823.72
2023-05-12T17:51:55.022Z,96828.50
2023-05-12T17:54:21.674Z,96830.75
2023-05-12T17:56:48.744Z,96828.63
2023-05-12T17:59:15.357Z,96833.88
2023-05-12T18:01:42.245Z,96839.00
2023-05-12T18:04:09.160Z,96842.88
2023-05-12T18:06:35.964Z,96850.63
2023-05-12T18:09:03.281Z,96853.00
2023-05-12T18:11:30.018Z,96865.75
2023-05-12T18:13:56.657Z,96860.88
2023-05-12T18:16:29.023Z,96856.81
2023-05-12T18:18:56.933Z,96868.59
2023-05-12T18:21:23.714Z,96869.19
2023-05-12T18:23:50.378Z,96878.72
2023-05-12T18:26:17.056Z,96876.34
2023-05-12T18:28:43.751Z,96881.66
2023-05-12T18:31:15.474Z,96879.16
2023-05-12T18:33:42.558Z,96877.59
2023-05-12T18:36:10.169Z,96885.44
2023-05-12T18:38:37.098Z,96880.69
2023-05-12T18:41:03.790Z,96888.91
2023-05-12T18:43:30.510Z,96896.03
2023-05-12T18:45:57.288Z,96887.47
2023-05-12T18:48:24.014Z,96885.78
2023-05-12T18:50:50.943Z,96887.31
2023-05-12T18:53:17.840Z,96887.97
2023-05-12T18:55:44.578Z,96887.72
2023-05-12T18:58:11.279Z,96887.59
2023-05-12T19:00:37.993Z,96886.56
2023-05-12T19:03:04.754Z,96884.41
2023-05-12T19:05:31.603Z,96888.59
2023-05-12T19:07:58.427Z,96887.28
2023-05-12T19:10:25.168Z,96889.78
2023-05-12T19:12:51.912Z,96891.53
2023-05-12T19:15:19.021Z,96888.97
2023-05-12T19:17:45.912Z,96900.25
2023-05-12T19:20:12.608Z,96905.31
2023-05-12T19:22:39.392Z,96903.75
2023-05-12T19:25:06.507Z,96908.69
2023-05-12T19:27:33.229Z,96914.75
2023-05-12T19:30:02.242Z,96916.91
2023-05-12T19:32:29.158Z,96916.53
2023-05-12T19:34:56.073Z,96915.41
2023-05-12T19:37:22.944Z,96926.06
2023-05-12T19:39:50.344Z,96926.78
2023-05-12T19:42:17.201Z,96931.25
2023-05-12T19:44:43.868Z,96933.44
2023-05-12T19:47:11.368Z,96930.84
2023-05-12T19:49:38.521Z,96933.47
2023-05-12T19:52:06.030Z,96936.63
2023-05-12T19:54:32.755Z,96933.31
2023-05-12T19:56:59.433Z,96930.31
2023-05-12T19:59:26.744Z,96942.53
2023-05-12T20:01:53.793Z,96937.66
2023-05-12T20:04:20.496Z,96942.00
2023-05-12T20:06:47.158Z,96946.31
2023-05-12T20:09:13.908Z,96944.91
2023-05-12T20:11:40.465Z,96943.03
2023-05-12T20:14:07.149Z,96940.88
2023-05-12T20:16:33.865Z,96941.91
2023-05-12T20:19:02.646Z,96952.25
2023-05-12T20:21:31.379Z,96945.78
2023-05-12T20:23:58.165Z,96939.91
2023-05-12T20:26:24.842Z,96954.13
2023-05-12T20:28:51.507Z,96952.84
2023-05-12T20:31:18.816Z,96956.56
2023-05-12T20:33:45.621Z,96954.44
2023-05-12T20:36:12.282Z,96960.16
2023-05-12T20:38:39.809Z,96955.44
2023-05-12T20:41:07.449Z,96958.59
2023-05-12T20:43:34.215Z,96969.53
2023-05-12T20:46:04.708Z,96964.75
2023-05-12T20:48:32.494Z,96958.16
2023-05-12T20:50:59.667Z,96958.84
2023-05-12T20:53:26.404Z,96960.13
2023-05-12T20:55:53.000Z,96961.97
2023-05-12T20:58:19.715Z,96957.34
2023-05-12T21:00:46.340Z,96966.53
2023-05-12T21:03:16.855Z,96969.13
2023-05-12T21:05:47.706Z,96957.50
2023-05-12T21:08:14.600Z,96963.59
2023-05-12T21:10:41.441Z,96960.69
2023-05-12T21:13:08.147Z,96967.31
2023-05-12T21:15:35.108Z,96973.47
2023-05-12T21:18:01.860Z,96973.28
2023-05-12T21:20:28.497Z,96968.72
2023-05-12T21:22:56.851Z,96972.13
2023-05-12T21:25:23.858Z,96965.38
2023-05-12T21:27:50.550Z,96975.00
2023-05-12T21:30:17.339Z,96967.53
2023-05-12T21:32:44.383Z,96965.53
2023-05-12T21:35:11.430Z,96964.53
2023-05-12T21:37:38.313Z,96964.97
2023-05-12T21:40:05.965Z,96966.97
2023-05-12T21:42:32.708Z,96965.06
2023-05-12T21:44:59.396Z,96973.09
2023-05-12T21:47:26.076Z,96977.72
2023-05-12T21:49:54.572Z,96972.84
2023-05-12T21:52:21.361Z,96974.94
2023-05-12T21:54:47.956Z,96977.66
2023-05-12T21:57:14.822Z,96972.25
2023-05-12T21:59:41.368Z,96973.09
2023-05-12T22:02:08.113Z,96969.22
2023-05-12T22:04:34.944Z,96981.28
2023-05-12T22:07:01.650Z,96978.16
2023-05-12T22:09:30.396Z,96977.41
2023-05-12T22:11:57.979Z,96975.97
2023-05-12T22:14:24.834Z,96978.56
2023-05-12T22:16:51.657Z,96980.41
2023-05-12T22:19:18.431Z,96984.97
2023-05-12T22:21:45.728Z,96980.81
2023-05-12T22:24:12.423Z,96983.88
2023-05-12T22:26:39.240Z,96979.38
2023-05-12T22:29:05.884Z,96988.09
2023-05-12T22:31:32.606Z,96987.56
2023-05-12T22:33:59.346Z,96990.28
2023-05-12T22:36:25.981Z,96998.75
2023-05-12T22:38:52.649Z,96992.75
2023-05-12T22:41:19.366Z,96995.75
2023-05-12T22:43:46.191Z,96987.31
2023-05-12T22:46:12.950Z,96987.84
2023-05-12T22:48:39.880Z,96983.16
2023-05-12T22:51:06.909Z,96983.16
2023-05-12T22:53:41.188Z,96985.91
2023-05-12T22:56:08.302Z,96975.31
2023-05-12T22:58:34.893Z,96977.72
2023-05-12T23:01:01.778Z,96982.44
2023-05-12T23:03:28.509Z,96980.31
2023-05-12T23:05:55.668Z,96990.63
2023-05-12T23:08:22.405Z,96992.06
2023-05-12T23:10:49.098Z,96983.34
2023-05-12T23:13:16.000Z,96980.91
2023-05-12T23:15:42.743Z,96986.13
2023-05-12T23:18:09.609Z,96981.38
2023-05-12T23:20:36.355Z,96983.09
2023-05-12T23:23:03.055Z,96986.69
2023-05-12T23:25:29.730Z,96987.09
2023-05-12T23:27:56.278Z,96983.78
2023-05-12T23:30:23.332Z,96984.38
2023-05-12T23:32:50.699Z,96980.78
2023-05-12T23:35:17.567Z,96980.38
2023-05-12T23:37:44.756Z,96982.94
2023-05-12T23:40:11.686Z,96979.06
2023-05-12T23:42:38.253Z,96977.63
2023-05-12T23:45:05.510Z,96979.63
2023-05-12T23:47:32.152Z,96975.31
2023-05-12T23:49:58.828Z,96978.75
2023-05-12T23:52:25.938Z,96979.50
2023-05-12T23:54:53.050Z,96984.78
2023-05-12T23:57:19.758Z,96983.59
2023-05-12T23:59:46.459Z,96985.28
